Riverton, Wyoming
Current Conditions -  °F | °C
As of 4:53 PM on Wednesday 22 Oct 2014 (Local Time) from KRIW Reporting Station
Clear Clear  
Wind Chill: 14°   Ceiling: Unl
Heat Index: 14°   Visibility: 10mi
Dew Point: -8°   Wind: 10mph
Humidity: 21%   Direction: 210°SSW
Pressure: 30.07"   Gusts: NA
Location:  43.02°N, 108.38°W
Report Text: KRIW 222253Z AUTO 21009KT 10SM CLR 14/M08 A3007 RMK AO2 SLP161 T01391083
Loading
Personal Weather Stations






























Interactive Weather Map
Tropical Storm Tracking
New forecast layout! Learn more

10-Day Weather Forecast

Advertisements
Track Severe Weather on mobile